Time;durP1;ratioP1;P1;durP2;ratioP2;P2;SDS_P1;SDS_P2;PMS_P1;PMS_P2;Temp;Humidity;BMP_temperature;BMP_pressure;BME280_temperature;BME280_humidity;BME280_pressure;Samples;Min_cycle;Max_cycle;Signal;HPM_P1;HPM_P2
2021/07/16 00:02:12;;;;;;;2.60;2.40;;;15.40;99.90;;;;;;4996654;28;20460;-82
2021/07/16 00:04:39;;;;;;;2.90;2.70;;;15.40;99.90;;;;;;4996586;28;20449;-82
2021/07/16 00:07:07;;;;;;;2.40;2.20;;;15.30;99.90;;;;;;4996612;28;20444;-81
2021/07/16 00:09:34;;;;;;;2.20;2.10;;;15.30;99.90;;;;;;4996377;28;20484;-81
2021/07/16 00:12:01;;;;;;;2.90;2.50;;;15.30;99.90;;;;;;4996485;28;20457;-81
2021/07/16 00:14:27;;;;;;;2.30;2.20;;;15.20;99.90;;;;;;4996137;28;20448;-81
2021/07/16 00:16:54;;;;;;;2.20;2.10;;;15.20;99.90;;;;;;4997199;28;20456;-81
2021/07/16 00:19:21;;;;;;;2.47;2.27;;;15.20;99.90;;;;;;4996283;28;20472;-81
2021/07/16 00:21:48;;;;;;;2.83;2.20;;;15.20;99.90;;;;;;4996320;28;20455;-81
2021/07/16 00:24:16;;;;;;;2.73;2.10;;;15.20;99.90;;;;;;4996285;28;20472;-81
2021/07/16 00:26:46;;;;;;;2.90;2.57;;;15.20;99.90;;;;;;4996252;28;20456;-81
2021/07/16 00:29:12;;;;;;;7.10;4.10;;;15.10;99.90;;;;;;4996076;28;20571;-81
2021/07/16 00:31:39;;;;;;;2.13;2.03;;;15.20;99.90;;;;;;4996114;28;20460;-81
2021/07/16 00:34:06;;;;;;;3.03;2.83;;;15.10;99.90;;;;;;4995961;28;20464;-81
2021/07/16 00:36:33;;;;;;;2.87;2.37;;;15.10;99.90;;;;;;4996040;28;20455;-81
2021/07/16 00:39:00;;;;;;;2.83;2.53;;;15.10;99.90;;;;;;4995820;28;20473;-81
2021/07/16 00:41:28;;;;;;;2.13;2.03;;;15.00;99.90;;;;;;4995318;28;20461;-82
2021/07/16 00:43:55;;;;;;;2.73;2.53;;;15.00;99.90;;;;;;4995594;28;20456;-83
2021/07/16 00:46:21;;;;;;;1.70;1.60;;;15.00;99.90;;;;;;4995875;28;20928;-82
2021/07/16 00:48:48;;;;;;;1.70;1.60;;;15.00;99.90;;;;;;4995275;28;20483;-83
2021/07/16 00:51:15;;;;;;;7.50;2.37;;;14.90;99.90;;;;;;4996565;28;20460;-82
2021/07/16 00:53:42;;;;;;;2.23;2.10;;;14.90;99.90;;;;;;4995381;28;20944;-81
2021/07/16 00:56:09;;;;;;;2.33;1.73;;;14.90;99.90;;;;;;4995567;28;20452;-82
2021/07/16 00:58:37;;;;;;;2.23;2.07;;;14.90;99.90;;;;;;4995561;28;20480;-81
2021/07/16 01:01:06;;;;;;;2.50;2.30;;;14.80;99.90;;;;;;4995990;28;20813;-81
2021/07/16 01:03:32;;;;;;;2.67;2.47;;;14.80;99.90;;;;;;4995253;28;20463;-81
2021/07/16 01:06:01;;;;;;;2.97;2.00;;;14.80;99.90;;;;;;4995222;28;20444;-81
2021/07/16 01:08:28;;;;;;;2.57;2.37;;;14.80;99.90;;;;;;4995358;28;20476;-82
2021/07/16 01:10:55;;;;;;;3.37;2.10;;;14.80;99.90;;;;;;4995093;28;20476;-83
2021/07/16 01:13:22;;;;;;;2.70;2.50;;;14.80;99.90;;;;;;4995287;28;20463;-83
2021/07/16 01:15:51;;;;;;;2.70;2.50;;;14.80;99.90;;;;;;4995279;28;20445;-82
2021/07/16 01:18:18;;;;;;;2.73;2.53;;;14.80;99.90;;;;;;4994881;28;20964;-81
2021/07/16 01:20:45;;;;;;;3.13;2.83;;;14.80;99.90;;;;;;4995193;28;20445;-81
2021/07/16 01:23:16;;;;;;;7.33;2.70;;;14.80;99.90;;;;;;4994845;28;20452;-82
2021/07/16 01:25:43;;;;;;;3.33;3.07;;;14.80;99.90;;;;;;4995468;28;20479;-81
2021/07/16 01:28:09;;;;;;;3.00;2.77;;;14.80;99.90;;;;;;4995354;28;20479;-82
2021/07/16 01:30:36;;;;;;;3.40;3.10;;;14.80;99.90;;;;;;4994639;28;21007;-82
2021/07/16 01:33:05;;;;;;;3.87;3.50;;;14.80;99.90;;;;;;4994753;28;20440;-81
2021/07/16 01:35:33;;;;;;;9.23;3.47;;;14.80;99.90;;;;;;4994916;28;20448;-81
2021/07/16 01:38:00;;;;;;;15.33;4.70;;;14.90;99.90;;;;;;4994847;28;20452;-81
2021/07/16 01:40:32;;;;;;;5.90;3.23;;;14.90;99.90;;;;;;4994842;28;20787;-81
2021/07/16 01:42:59;;;;;;;3.33;3.00;;;14.90;99.90;;;;;;4995024;28;20440;-81
2021/07/16 01:45:30;;;;;;;4.93;2.50;;;14.90;99.90;;;;;;4994720;28;20455;-81
2021/07/16 01:47:58;;;;;;;5.53;3.67;;;14.90;99.90;;;;;;4994335;28;20468;-82
2021/07/16 01:50:26;;;;;;;2.90;2.70;;;14.90;99.90;;;;;;4994215;28;20488;-82
2021/07/16 01:52:54;;;;;;;2.73;2.50;;;14.90;99.90;;;;;;4994234;28;20441;-82
2021/07/16 01:55:22;;;;;;;2.50;2.30;;;14.80;99.90;;;;;;4994566;28;20463;-82
2021/07/16 01:57:52;;;;;;;6.07;3.03;;;14.80;99.90;;;;;;4994376;28;20456;-82
2021/07/16 02:00:21;;;;;;;2.90;2.70;;;14.80;99.90;;;;;;4994120;28;20984;-81
2021/07/16 02:02:50;;;;;;;3.43;3.20;;;14.80;99.90;;;;;;4994174;28;20452;-82
2021/07/16 02:05:17;;;;;;;3.10;2.80;;;14.80;99.90;;;;;;4994404;28;20456;-82
2021/07/16 02:07:44;;;;;;;2.83;2.63;;;14.80;99.90;;;;;;4994421;28;20452;-81
2021/07/16 02:10:11;;;;;;;2.90;2.70;;;14.80;99.90;;;;;;4993793;28;20833;-82
2021/07/16 02:12:38;;;;;;;2.90;2.70;;;14.80;99.90;;;;;;4994006;28;20444;-82
2021/07/16 02:15:11;;;;;;;2.67;2.47;;;14.80;99.90;;;;;;4994284;28;20456;-82
2021/07/16 02:17:38;;;;;;;3.30;3.10;;;14.80;99.90;;;;;;4994329;28;20444;-81
2021/07/16 02:20:17;;;;;;;3.20;3.00;;;14.80;99.90;;;;;;4994118;28;20471;-81
2021/07/16 02:22:44;;;;;;;3.17;2.97;;;14.80;99.90;;;;;;4994253;28;20451;-83
2021/07/16 02:25:12;;;;;;;2.30;2.10;;;14.80;99.90;;;;;;4993849;28;20448;-83
2021/07/16 02:27:39;;;;;;;2.30;2.20;;;14.80;99.90;;;;;;4993862;28;20986;-83
2021/07/16 02:30:06;;;;;;;3.13;2.93;;;14.80;99.90;;;;;;4993640;28;20495;-83
2021/07/16 02:32:34;;;;;;;2.70;2.50;;;14.80;99.90;;;;;;4994133;28;20971;-82
2021/07/16 02:35:01;;;;;;;4.30;2.80;;;14.80;99.90;;;;;;4993853;28;20464;-82
2021/07/16 02:37:28;;;;;;;3.13;2.93;;;14.80;99.90;;;;;;4993879;28;20453;-83
2021/07/16 02:39:54;;;;;;;2.90;2.70;;;14.80;99.90;;;;;;4993927;28;20479;-82
2021/07/16 02:42:21;;;;;;;2.43;2.23;;;14.80;99.90;;;;;;4993621;28;20448;-82
2021/07/16 02:44:48;;;;;;;2.70;2.50;;;14.70;99.90;;;;;;4993965;28;20460;-82
2021/07/16 02:47:14;;;;;;;2.93;2.67;;;14.70;99.90;;;;;;4993660;28;20484;-82
2021/07/16 02:49:43;;;;;;;3.60;3.30;;;14.70;99.90;;;;;;4993656;28;20857;-82
2021/07/16 02:52:09;;;;;;;2.70;2.50;;;14.70;99.90;;;;;;4993543;28;20452;-82
2021/07/16 02:54:36;;;;;;;4.20;2.60;;;14.70;99.90;;;;;;4993849;28;20456;-82
2021/07/16 02:57:03;;;;;;;2.83;2.73;;;14.70;99.90;;;;;;4993791;28;20463;-83
2021/07/16 02:59:30;;;;;;;2.93;2.60;;;14.70;99.90;;;;;;4993462;28;20507;-81
2021/07/16 03:01:58;;;;;;;2.57;2.47;;;14.70;99.90;;;;;;4993765;28;20452;-81
2021/07/16 03:04:25;;;;;;;3.60;3.30;;;14.70;99.90;;;;;;4993732;28;20437;-81
2021/07/16 03:06:54;;;;;;;3.20;2.90;;;14.70;99.90;;;;;;4997210;28;20460;-81
2021/07/16 03:09:20;;;;;;;4.50;3.50;;;14.70;99.90;;;;;;4997516;28;20468;-81
2021/07/16 03:11:47;;;;;;;2.60;2.40;;;14.70;99.90;;;;;;4997338;28;20947;-81
2021/07/16 03:14:14;;;;;;;3.17;2.83;;;14.70;99.90;;;;;;4997598;28;20463;-82
2021/07/16 03:16:41;;;;;;;3.17;2.97;;;14.70;99.90;;;;;;4997552;28;20463;-83
2021/07/16 03:19:08;;;;;;;3.13;2.93;;;14.70;99.90;;;;;;4997139;28;20472;-83
2021/07/16 03:21:35;;;;;;;3.13;2.93;;;14.70;99.90;;;;;;4997438;28;20453;-82
2021/07/16 03:24:04;;;;;;;2.90;2.70;;;14.70;99.90;;;;;;4997156;28;20463;-83
2021/07/16 03:26:31;;;;;;;2.87;2.57;;;14.70;99.90;;;;;;4997004;28;20452;-83
2021/07/16 03:28:57;;;;;;;2.63;2.43;;;14.70;99.90;;;;;;4996986;28;20833;-83
2021/07/16 03:31:24;;;;;;;3.10;2.90;;;14.70;99.90;;;;;;4997173;28;20499;-82
2021/07/16 03:33:51;;;;;;;4.07;3.10;;;14.70;99.90;;;;;;4996912;28;20982;-82
2021/07/16 03:36:17;;;;;;;3.57;3.17;;;14.70;99.90;;;;;;4996843;28;20453;-82
2021/07/16 03:38:46;;;;;;;5.33;3.03;;;14.70;99.90;;;;;;4997038;28;20479;-82
2021/07/16 03:41:14;;;;;;;4.80;3.20;;;14.70;99.90;;;;;;4989351;28;20491;-82
2021/07/16 03:43:41;;;;;;;4.73;2.90;;;14.70;99.90;;;;;;4996985;28;20448;-82
2021/07/16 03:46:08;;;;;;;2.97;2.77;;;14.70;99.90;;;;;;4996970;28;20460;-82
2021/07/16 03:48:35;;;;;;;3.10;2.80;;;14.70;99.90;;;;;;4996406;28;20483;-82
2021/07/16 03:51:01;;;;;;;4.83;2.70;;;14.60;99.90;;;;;;4996435;28;20497;-82
2021/07/16 03:53:28;;;;;;;3.17;2.87;;;14.70;99.90;;;;;;4996839;28;20456;-82
2021/07/16 03:55:55;;;;;;;3.70;3.40;;;14.60;99.90;;;;;;4996529;28;20441;-82
2021/07/16 03:58:23;;;;;;;4.50;3.10;;;14.60;99.90;;;;;;4996527;28;20970;-81
2021/07/16 04:00:50;;;;;;;9.53;4.00;;;14.60;99.90;;;;;;4996688;28;20452;-81
2021/07/16 04:03:17;;;;;;;6.87;3.37;;;14.60;99.90;;;;;;4996644;28;20463;-81
2021/07/16 04:05:45;;;;;;;3.47;3.20;;;14.60;99.90;;;;;;4996654;28;20455;-81
2021/07/16 04:08:16;;;;;;;4.10;3.00;;;14.60;99.90;;;;;;4996509;28;20456;-81
2021/07/16 04:10:44;;;;;;;3.87;3.33;;;14.60;99.90;;;;;;4996483;28;20472;-81
2021/07/16 04:13:12;;;;;;;3.40;3.03;;;14.70;99.90;;;;;;4997321;28;20456;-81
2021/07/16 04:15:42;;;;;;;3.50;3.30;;;14.70;99.90;;;;;;4996190;28;20448;-80
2021/07/16 04:18:09;;;;;;;4.07;3.67;;;14.70;99.90;;;;;;4996103;28;20448;-81
2021/07/16 04:20:39;;;;;;;3.50;2.87;;;14.80;99.90;;;;;;4996367;28;20455;-81
2021/07/16 04:23:06;;;;;;;4.10;3.73;;;14.70;99.90;;;;;;4996299;28;20560;-81
2021/07/16 04:25:34;;;;;;;4.17;3.80;;;14.80;99.90;;;;;;4996287;28;20452;-81
2021/07/16 04:28:03;;;;;;;9.23;4.33;;;14.80;99.90;;;;;;4995885;28;20455;-81
2021/07/16 04:30:31;;;;;;;4.80;4.00;;;14.90;99.90;;;;;;4996579;28;20483;-81
2021/07/16 04:33:01;;;;;;;4.50;4.10;;;14.90;99.90;;;;;;4996171;28;20449;-81
2021/07/16 04:35:29;;;;;;;4.90;3.80;;;15.00;99.90;;;;;;4996078;28;20468;-81
2021/07/16 04:37:56;;;;;;;13.43;4.60;;;15.00;99.90;;;;;;4996072;28;20821;-82
2021/07/16 04:40:24;;;;;;;5.00;4.43;;;15.10;99.90;;;;;;4995932;28;20476;-81
2021/07/16 04:42:52;;;;;;;7.67;4.87;;;15.10;99.90;;;;;;4995623;28;20952;-81
2021/07/16 04:45:19;;;;;;;7.10;5.07;;;15.20;99.90;;;;;;4995901;28;20453;-81
2021/07/16 04:47:46;;;;;;;8.20;5.30;;;15.20;99.90;;;;;;4995390;28;20484;-82
2021/07/16 04:50:16;;;;;;;6.27;5.03;;;15.20;99.90;;;;;;4995435;28;20479;-81
2021/07/16 04:52:45;;;;;;;7.80;5.50;;;15.20;99.90;;;;;;4995515;28;20795;-81
2021/07/16 04:55:13;;;;;;;6.07;4.87;;;15.20;99.90;;;;;;4995720;28;20471;-81
2021/07/16 04:57:40;;;;;;;7.13;5.80;;;15.20;99.90;;;;;;4995572;28;20459;-81
2021/07/16 05:00:10;;;;;;;10.63;6.37;;;15.20;99.90;;;;;;4995592;28;20467;-81
2021/07/16 05:02:36;;;;;;;6.97;5.60;;;15.20;99.90;;;;;;4995335;28;20437;-81
2021/07/16 05:05:04;;;;;;;7.30;5.37;;;15.30;99.90;;;;;;4995507;28;20444;-81
2021/07/16 05:07:32;;;;;;;8.60;5.53;;;15.30;99.90;;;;;;4995474;28;20449;-81
2021/07/16 05:09:59;;;;;;;7.30;5.33;;;15.30;99.90;;;;;;4995086;28;20453;-81
2021/07/16 05:12:26;;;;;;;8.03;6.00;;;15.40;99.90;;;;;;4995061;28;20456;-81
2021/07/16 05:14:54;;;;;;;7.83;6.87;;;15.40;99.90;;;;;;4995286;28;20453;-81
2021/07/16 05:17:20;;;;;;;7.60;5.57;;;15.40;99.90;;;;;;4995250;28;20460;-81
2021/07/16 05:19:47;;;;;;;7.20;6.30;;;15.50;99.90;;;;;;4994833;28;20988;-80
2021/07/16 05:22:14;;;;;;;6.27;5.67;;;15.60;99.90;;;;;;4995220;28;20467;-81
2021/07/16 05:24:42;;;;;;;8.37;6.20;;;15.70;99.90;;;;;;4994873;28;20437;-81
2021/07/16 05:27:09;;;;;;;7.10;6.30;;;15.90;99.90;;;;;;4995917;28;20800;-81
2021/07/16 05:29:35;;;;;;;5.73;5.13;;;16.00;99.90;;;;;;4994574;28;20472;-81
2021/07/16 05:32:03;;;;;;;6.30;5.00;;;16.10;99.90;;;;;;4994908;28;20492;-82
2021/07/16 05:34:29;;;;;;;7.00;5.40;;;16.20;99.90;;;;;;4994725;28;20440;-82
2021/07/16 05:36:56;;;;;;;9.27;5.70;;;16.20;99.90;;;;;;4995048;28;20456;-81
2021/07/16 05:39:23;;;;;;;6.70;5.90;;;16.20;99.90;;;;;;4994754;28;20472;-81
2021/07/16 05:41:51;;;;;;;5.70;5.20;;;16.20;99.90;;;;;;4994444;28;20448;-81
2021/07/16 05:44:18;;;;;;;6.60;5.57;;;16.20;99.90;;;;;;4994628;28;20459;-81
2021/07/16 05:46:44;;;;;;;6.00;5.40;;;16.20;99.90;;;;;;4994392;28;20437;-81
2021/07/16 05:49:11;;;;;;;6.47;5.53;;;16.20;99.90;;;;;;4994170;28;20487;-81
2021/07/16 05:51:38;;;;;;;7.37;5.53;;;16.10;99.90;;;;;;4994494;28;20511;-81
2021/07/16 05:54:04;;;;;;;8.33;5.80;;;16.10;99.90;;;;;;4994480;28;20456;-80
2021/07/16 05:56:31;;;;;;;6.73;5.70;;;16.10;99.90;;;;;;4994509;28;20456;-81
2021/07/16 05:58:59;;;;;;;6.73;6.03;;;16.20;99.90;;;;;;4994398;28;20501;-81
2021/07/16 06:01:26;;;;;;;6.80;5.47;;;16.40;99.90;;;;;;4994443;28;20444;-81
2021/07/16 06:03:53;;;;;;;8.60;6.50;;;16.50;99.90;;;;;;4994423;28;20536;-81
2021/07/16 06:06:20;;;;;;;6.80;6.07;;;16.50;99.90;;;;;;4994465;28;20450;-81
2021/07/16 06:08:47;;;;;;;7.93;6.30;;;16.60;99.90;;;;;;4994330;28;20473;-81
2021/07/16 06:11:14;;;;;;;6.53;5.67;;;16.60;99.90;;;;;;4994187;28;20477;-81
2021/07/16 06:13:41;;;;;;;7.83;6.30;;;16.60;99.90;;;;;;4993926;28;20842;-81
2021/07/16 06:16:09;;;;;;;6.80;6.10;;;16.60;99.90;;;;;;4994262;28;20440;-81
2021/07/16 06:18:35;;;;;;;7.23;6.10;;;16.70;99.90;;;;;;4994173;28;20479;-81
2021/07/16 06:21:04;;;;;;;6.70;6.00;;;16.70;99.90;;;;;;4994176;28;20455;-81
2021/07/16 06:23:31;;;;;;;9.33;7.50;;;16.80;99.90;;;;;;4993831;28;20522;-81
2021/07/16 06:25:57;;;;;;;9.83;6.00;;;16.90;99.90;;;;;;4993855;28;20440;-81
2021/07/16 06:28:24;;;;;;;7.30;6.60;;;16.90;99.90;;;;;;4993963;28;20480;-81
2021/07/16 06:30:51;;;;;;;9.20;6.93;;;17.00;99.90;;;;;;4993968;28;20484;-81
2021/07/16 06:33:19;;;;;;;8.43;7.10;;;17.00;99.90;;;;;;4993982;28;20452;-81
2021/07/16 06:35:46;;;;;;;8.83;6.80;;;17.00;99.90;;;;;;4993728;28;20436;-81
2021/07/16 06:38:13;;;;;;;7.40;6.67;;;16.90;99.90;;;;;;4993845;28;20459;-81
2021/07/16 06:40:40;;;;;;;7.90;6.90;;;16.90;99.90;;;;;;4993149;28;20453;-81
2021/07/16 06:43:09;;;;;;;8.30;7.43;;;17.00;99.90;;;;;;4993906;28;20448;-81
2021/07/16 06:45:37;;;;;;;7.33;6.63;;;17.20;99.90;;;;;;4993924;28;20456;-81
2021/07/16 06:48:08;;;;;;;8.77;7.73;;;17.30;99.90;;;;;;4993233;28;20476;-81
2021/07/16 06:50:36;;;;;;;7.00;6.30;;;17.50;99.90;;;;;;4993584;28;20413;-81
2021/07/16 06:53:33;;;;;;;6.97;6.20;;;17.70;99.90;;;;;;4993026;28;20448;-81
2021/07/16 06:59:17;;;;;;;6.30;5.70;;;17.90;99.90;;;;;;4936387;28;20490;-81
2021/07/16 07:02:40;;;;;;;6.83;6.17;;;17.90;99.90;;;;;;4993799;28;20439;-81
2021/07/16 07:05:28;;;;;;;5.87;5.37;;;17.90;99.90;;;;;;4993044;28;20445;-81
2021/07/16 07:08:27;;;;;;;6.60;5.83;;;18.00;99.90;;;;;;4993562;28;20452;-81
2021/07/16 07:10:54;;;;;;;6.80;6.10;;;18.10;99.90;;;;;;4993324;28;20535;-81
2021/07/16 07:13:20;;;;;;;6.80;6.20;;;18.00;99.90;;;;;;4993316;28;20940;-81
2021/07/16 07:15:47;;;;;;;6.80;5.67;;;18.00;99.90;;;;;;4993260;28;20452;-81
2021/07/16 07:18:51;;;;;;;5.73;4.93;;;18.20;99.90;;;;;;4993547;28;20475;-81
2021/07/16 07:21:59;;;;;;;5.80;5.30;;;18.60;99.90;;;;;;4992497;28;20467;-81
2021/07/16 07:31:10;;;;;;;4.50;4.20;;;19.10;99.90;;;;;;4895670;29;20512;-81
2021/07/16 08:03:45;;;;;;;4.63;4.23;;;18.80;99.90;;;;;;4859512;28;20476;-81
2021/07/16 08:06:12;;;;;;;3.70;3.50;;;19.10;99.90;;;;;;4977209;28;20438;-81
2021/07/16 08:08:38;;;;;;;4.80;4.13;;;19.40;99.90;;;;;;4976740;28;20504;-81
2021/07/16 08:11:05;;;;;;;4.07;3.87;;;20.00;99.90;;;;;;4976943;28;20449;-82
2021/07/16 08:13:33;;;;;;;3.73;3.43;;;20.90;99.90;;;;;;4977025;28;20457;-81
2021/07/16 08:16:01;;;;;;;3.40;3.20;;;21.60;99.90;;;;;;4976752;28;20448;-82
2021/07/16 08:18:28;;;;;;;4.57;4.27;;;22.20;99.90;;;;;;4976778;28;20477;-82
2021/07/16 08:20:55;;;;;;;3.97;3.77;;;22.60;99.90;;;;;;4976924;28;20213;-82
2021/07/16 08:23:22;;;;;;;4.00;3.70;;;22.90;99.90;;;;;;4976741;28;20461;-82
2021/07/16 08:25:49;;;;;;;3.47;3.28;;;23.10;99.90;;;;;;4976977;28;20233;-82
2021/07/16 08:28:16;;;;;;;3.85;3.65;;;23.20;99.90;;;;;;4976852;28;20220;-81
2021/07/16 08:30:44;;;;;;;3.88;3.67;;;23.10;99.90;;;;;;4976753;28;20216;-81
2021/07/16 08:33:11;;;;;;;3.10;2.90;;;23.10;99.90;;;;;;4976663;28;20232;-81
2021/07/16 08:35:38;;;;;;;2.95;2.85;;;23.00;99.90;;;;;;4976923;28;20209;-81
2021/07/16 08:38:05;;;;;;;2.20;2.10;;;22.80;99.90;;;;;;4976570;28;20232;-79
2021/07/16 08:40:32;;;;;;;2.60;2.50;;;23.00;99.90;;;;;;4976629;28;20212;-79
2021/07/16 08:43:00;;;;;;;2.28;2.17;;;23.00;99.90;;;;;;4976534;28;20201;-80
2021/07/16 08:45:27;;;;;;;2.70;2.50;;;22.90;99.90;;;;;;4976470;28;20562;-80
2021/07/16 08:47:55;;;;;;;2.70;2.60;;;22.80;99.90;;;;;;4978422;28;20214;-80
2021/07/16 08:50:23;;;;;;;2.63;2.53;;;22.80;99.90;;;;;;4995715;28;20229;-80
2021/07/16 08:52:50;;;;;;;2.60;2.50;;;22.80;99.90;;;;;;4995701;28;20239;-81
2021/07/16 08:55:19;;;;;;;3.22;3.00;;;22.50;99.90;;;;;;4995767;28;20236;-81
2021/07/16 08:57:46;;;;;;;8.80;3.17;;;22.50;99.90;;;;;;4996388;28;20209;-81
2021/07/16 09:00:14;;;;;;;3.00;2.90;;;22.50;99.90;;;;;;4995705;28;20236;-80
2021/07/16 09:02:51;;;;;;;3.50;3.30;;;22.40;99.90;;;;;;4994643;28;20570;-80
2021/07/16 09:05:30;;;;;;;3.30;3.10;;;22.10;99.90;;;;;;4995277;28;20672;-80
2021/07/16 09:07:57;;;;;;;4.30;4.00;;;21.70;99.90;;;;;;4995506;28;20436;-80
2021/07/16 09:10:23;;;;;;;3.80;3.50;;;21.40;99.90;;;;;;4995302;28;20475;-80
2021/07/16 09:12:58;;;;;;;3.03;2.83;;;21.20;99.90;;;;;;4995095;28;20479;-80
2021/07/16 09:15:25;;;;;;;3.20;3.00;;;20.90;99.90;;;;;;4995118;28;20412;-79
2021/07/16 09:18:07;;;;;;;3.43;3.23;;;20.70;99.90;;;;;;4995234;28;20460;-80
2021/07/16 09:20:36;;;;;;;4.10;3.80;;;20.50;99.90;;;;;;4995185;28;20444;-81
2021/07/16 09:23:10;;;;;;;3.70;3.43;;;20.50;99.90;;;;;;4995255;28;20800;-81
2021/07/16 09:25:37;;;;;;;3.90;3.60;;;20.80;99.90;;;;;;4995203;28;20470;-79
2021/07/16 09:28:05;;;;;;;3.80;3.50;;;21.00;99.90;;;;;;4994994;28;20448;-79
2021/07/16 09:30:32;;;;;;;3.27;3.07;;;21.10;99.90;;;;;;4994836;28;20440;-79
2021/07/16 09:33:04;;;;;;;3.73;2.80;;;21.20;99.90;;;;;;4994964;28;20483;-79
2021/07/16 09:35:33;;;;;;;4.80;2.50;;;21.20;99.90;;;;;;4995020;28;20463;-79
2021/07/16 09:38:04;;;;;;;2.93;2.73;;;21.40;99.90;;;;;;4994879;28;20456;-79
2021/07/16 09:40:34;;;;;;;3.13;2.23;;;21.60;99.90;;;;;;4995186;28;20432;-81
2021/07/16 09:43:04;;;;;;;3.37;2.60;;;21.80;99.90;;;;;;4994852;28;20452;-82
2021/07/16 09:45:31;;;;;;;2.00;1.90;;;22.10;99.90;;;;;;4995897;28;20436;-81
2021/07/16 09:47:59;;;;;;;2.50;2.40;;;22.40;99.90;;;;;;4994239;28;21014;-80
2021/07/16 09:50:26;;;;;;;2.03;1.93;;;22.70;99.90;;;;;;4994603;28;20502;-81
2021/07/16 09:53:17;;;;;;;2.60;2.50;;;22.90;99.90;;;;;;4994597;28;20511;-82
2021/07/16 09:55:44;;;;;;;2.90;2.70;;;22.90;99.90;;;;;;4994589;28;20440;-79
2021/07/16 09:58:24;;;;;;;3.10;2.97;;;23.00;99.90;;;;;;4994346;28;20444;-79
2021/07/16 10:00:52;;;;;;;2.90;2.70;;;23.20;99.90;;;;;;4994300;28;20436;-80
2021/07/16 10:03:20;;;;;;;2.53;2.03;;;23.10;99.90;;;;;;4994410;28;20494;-79
2021/07/16 10:05:49;;;;;;;2.97;2.43;;;23.00;99.90;;;;;;4994390;28;20448;-80
2021/07/16 10:08:19;;;;;;;2.13;2.03;;;22.90;99.90;;;;;;4994246;28;20482;-80
2021/07/16 10:10:49;;;;;;;2.47;2.33;;;22.90;99.90;;;;;;4994253;28;20216;-79
2021/07/16 10:13:16;;;;;;;1.93;1.83;;;22.90;99.90;;;;;;4994102;28;20224;-80
2021/07/16 10:15:44;;;;;;;2.43;2.33;;;22.90;99.90;;;;;;4994227;28;20291;-82
2021/07/16 10:18:11;;;;;;;2.30;2.10;;;23.00;99.90;;;;;;4994202;28;20264;-81
2021/07/16 10:20:39;;;;;;;2.20;2.10;;;23.20;99.90;;;;;;4994204;28;20211;-79
2021/07/16 10:23:06;;;;;;;2.17;2.07;;;23.20;99.90;;;;;;4994143;28;20527;-79
2021/07/16 10:25:35;;;;;;;1.90;1.80;;;23.00;99.90;;;;;;4994083;28;20455;-82
2021/07/16 10:28:02;;;;;;;2.23;2.00;;;22.70;99.90;;;;;;4994002;28;20220;-82
2021/07/16 10:30:34;;;;;;;2.10;2.00;;;22.30;99.90;;;;;;4993901;28;20461;-81
2021/07/16 10:33:01;;;;;;;1.47;1.40;;;22.00;99.90;;;;;;4993980;28;20496;-81
2021/07/16 10:35:29;;;;;;;2.30;2.20;;;21.70;99.90;;;;;;4993795;28;20809;-79
2021/07/16 10:37:58;;;;;;;1.83;1.77;;;21.60;99.90;;;;;;4994045;28;20476;-78
2021/07/16 10:40:43;;;;;;;1.40;1.40;;;21.60;99.90;;;;;;4993654;28;21018;-79
2021/07/16 10:43:40;;;;;;;2.10;1.60;;;21.50;99.90;;;;;;4993896;28;20424;-79
2021/07/16 10:46:30;;;;;;;1.37;1.37;;;21.40;99.90;;;;;;4993924;28;20538;-81
2021/07/16 10:49:12;;;;;;;1.50;1.50;;;21.50;99.90;;;;;;4993449;28;20567;-81
2021/07/16 10:51:40;;;;;;;1.70;1.67;;;21.40;99.90;;;;;;4993877;28;20514;-82
2021/07/16 10:54:10;;;;;;;1.40;1.30;;;21.30;99.90;;;;;;4993543;28;20490;-82
2021/07/16 10:56:52;;;;;;;1.50;1.50;;;21.50;99.90;;;;;;4999967;28;20978;-83
2021/07/16 10:59:44;;;;;;;1.30;1.30;;;22.10;99.90;;;;;;4995744;28;20477;-83
2021/07/16 11:05:56;;;;;;;1.80;1.70;;;23.20;99.90;;;;;;4986075;28;20432;-82
2021/07/16 11:09:10;;;;;;;1.60;1.50;;;23.60;99.90;;;;;;4994053;28;20452;-82
2021/07/16 11:11:40;;;;;;;1.73;1.63;;;23.70;99.90;;;;;;4993357;28;20514;-82
2021/07/16 11:14:21;;;;;;;1.73;1.10;;;24.10;99.90;;;;;;4993575;28;20575;-82
2021/07/16 11:17:02;;;;;;;1.60;1.10;;;24.30;99.90;;;;;;4994370;28;20558;-82
2021/07/16 11:22:27;;;;;;;1.20;1.10;;;24.10;99.90;;;;;;4993813;28;20204;-83
2021/07/16 11:25:05;;;;;;;1.30;1.30;;;24.00;99.90;;;;;;4993353;28;20212;-84
2021/07/16 11:30:31;;;;;;;1.63;1.63;;;24.10;99.90;;;;;;5091491;27;20518;-83
2021/07/16 11:33:03;;;;;;;1.47;1.47;;;23.90;99.90;;;;;;5091251;28;20209;-83
2021/07/16 11:35:32;;;;;;;1.53;1.43;;;23.90;99.90;;;;;;5090611;28;20628;-83
2021/07/16 11:37:59;;;;;;;1.60;1.50;;;23.70;99.90;;;;;;5090806;28;20209;-82
2021/07/16 11:40:27;;;;;;;1.20;1.20;;;23.40;99.90;;;;;;5090477;28;20275;-83
2021/07/16 11:42:56;;;;;;;1.43;1.43;;;23.20;99.90;;;;;;5091079;28;20224;-82
2021/07/16 11:45:30;;;;;;;1.97;1.87;;;23.00;99.90;;;;;;5090210;28;20221;-82
2021/07/16 11:48:00;;;;;;;1.37;1.37;;;23.00;99.90;;;;;;5091089;28;20448;-84
2021/07/16 11:50:27;;;;;;;1.50;1.50;;;23.00;99.90;;;;;;5090188;28;20487;-84
2021/07/16 11:52:55;;;;;;;1.20;1.20;;;23.00;99.90;;;;;;5091016;28;20259;-83
2021/07/16 11:55:26;;;;;;;1.43;1.43;;;23.00;99.90;;;;;;5090778;28;20301;-84
2021/07/16 11:57:55;;;;;;;1.73;1.63;;;23.00;99.90;;;;;;5090505;28;20239;-84
2021/07/16 12:00:23;;;;;;;2.50;1.57;;;23.00;99.90;;;;;;5090110;28;20451;-84
2021/07/16 12:02:50;;;;;;;1.50;1.50;;;22.90;99.90;;;;;;5090691;28;20441;-84
2021/07/16 12:05:22;;;;;;;1.53;1.53;;;22.60;99.90;;;;;;5090348;28;20197;-84
2021/07/16 12:07:48;;;;;;;1.40;1.40;;;22.60;99.90;;;;;;5091106;28;20255;-83
2021/07/16 12:10:17;;;;;;;1.50;1.37;;;22.70;99.90;;;;;;5090176;28;20225;-84
2021/07/16 12:12:44;;;;;;;1.33;1.33;;;22.80;99.90;;;;;;5090209;28;20448;-84
2021/07/16 12:15:16;;;;;;;1.10;1.10;;;22.70;99.90;;;;;;5090127;28;20443;-83
2021/07/16 12:17:51;;;;;;;1.90;1.60;;;22.60;99.90;;;;;;5090508;28;20551;-84
2021/07/16 12:20:22;;;;;;;1.40;1.40;;;22.60;99.90;;;;;;5090242;28;20459;-83
2021/07/16 12:22:49;;;;;;;1.80;1.70;;;22.40;99.90;;;;;;5090810;28;20763;-84
2021/07/16 12:25:17;;;;;;;1.47;1.47;;;22.20;99.90;;;;;;5089645;28;20985;-83
2021/07/16 12:27:45;;;;;;;1.43;1.33;;;22.20;99.90;;;;;;5089838;28;20526;-83
2021/07/16 12:30:14;;;;;;;1.83;1.73;;;22.10;99.90;;;;;;5089334;28;21033;-83
2021/07/16 12:32:42;;;;;;;3.37;1.60;;;22.00;99.90;;;;;;5089952;28;20440;-84
2021/07/16 12:35:22;;;;;;;1.47;1.30;;;21.90;99.90;;;;;;5089787;28;20500;-84
2021/07/16 12:37:50;;;;;;;1.13;1.13;;;21.90;99.90;;;;;;5089483;28;20416;-83
2021/07/16 12:40:22;;;;;;;1.23;1.23;;;21.90;99.90;;;;;;5084850;28;20473;-83
2021/07/16 12:43:03;;;;;;;1.00;1.00;;;22.00;99.90;;;;;;5075900;28;20908;-82
2021/07/16 12:45:42;;;;;;;1.20;1.10;;;22.10;99.90;;;;;;5075799;28;20496;-82
2021/07/16 12:48:11;;;;;;;1.37;1.37;;;22.10;99.90;;;;;;5075963;28;20433;-82
2021/07/16 12:50:40;;;;;;;1.53;0.90;;;22.20;99.90;;;;;;5075568;28;21013;-81
2021/07/16 12:53:09;;;;;;;0.90;0.90;;;22.40;99.90;;;;;;5075625;28;20483;-81
2021/07/16 12:55:39;;;;;;;0.80;0.80;;;22.50;99.90;;;;;;5076104;28;20456;-82
2021/07/16 12:58:07;;;;;;;0.70;0.70;;;22.60;99.90;;;;;;5075714;28;20459;-83
2021/07/16 13:00:34;;;;;;;0.90;0.90;;;22.60;99.90;;;;;;5075765;28;20440;-83
2021/07/16 13:03:18;;;;;;;1.00;1.00;;;22.70;99.90;;;;;;5075465;28;20435;-83
2021/07/16 13:05:47;;;;;;;1.07;1.07;;;22.60;99.90;;;;;;5075369;28;20939;-83
2021/07/16 13:08:19;;;;;;;1.10;1.10;;;22.60;99.90;;;;;;5075371;28;20441;-83
2021/07/16 13:10:53;;;;;;;1.03;1.03;;;22.50;99.90;;;;;;5075253;28;20478;-84
2021/07/16 13:13:24;;;;;;;1.03;1.03;;;22.30;99.90;;;;;;5075624;28;20494;-83
2021/07/16 13:16:14;;;;;;;1.20;1.20;;;22.20;99.90;;;;;;5077036;28;20443;-83
2021/07/16 13:18:42;;;;;;;1.50;1.27;;;21.80;99.90;;;;;;5075199;28;21014;-83
2021/07/16 13:21:11;;;;;;;1.10;1.10;;;21.50;99.90;;;;;;5075210;28;20451;-84
2021/07/16 13:23:39;;;;;;;1.47;1.37;;;21.30;99.90;;;;;;5075386;28;20436;-83
2021/07/16 13:26:06;;;;;;;1.23;1.23;;;21.20;99.90;;;;;;5075454;28;20452;-84
2021/07/16 13:28:34;;;;;;;3.93;1.53;;;21.20;99.90;;;;;;5074848;28;20989;-83
2021/07/16 13:31:02;;;;;;;1.87;1.77;;;21.40;99.90;;;;;;5074986;28;20457;-84
2021/07/16 13:33:29;;;;;;;1.60;1.50;;;21.60;99.90;;;;;;5075236;28;20456;-83
2021/07/16 13:35:55;;;;;;;1.80;1.70;;;21.70;99.90;;;;;;5075172;28;20502;-84
2021/07/16 13:38:24;;;;;;;1.70;1.60;;;21.70;99.90;;;;;;5074792;28;20990;-84
2021/07/16 13:40:51;;;;;;;1.37;1.37;;;21.80;99.90;;;;;;5075222;28;20440;-83
2021/07/16 13:43:18;;;;;;;1.90;1.80;;;21.80;99.90;;;;;;5074817;28;20920;-83
2021/07/16 13:45:46;;;;;;;1.43;1.40;;;21.90;99.90;;;;;;5074932;28;20445;-83
2021/07/16 13:48:13;;;;;;;1.60;1.50;;;21.80;99.90;;;;;;5074795;28;20448;-84